Time;durP1;ratioP1;P1;durP2;ratioP2;P2;SDS_P1;SDS_P2;PMS_P1;PMS_P2;Temp;Humidity;BMP_temperature;BMP_pressure;BME280_temperature;BME280_humidity;BME280_pressure;Samples;Min_cycle;Max_cycle;Signal;HPM_P1;HPM_P2
2021/07/12 00:00:06;;;;;;;;;;;19.50;91.00;;;;;;4312622;33;42993;-81
2021/07/12 00:02:33;;;;;;;;;;;19.50;90.60;;;;;;4301768;33;44152;-81
2021/07/12 00:05:01;;;;;;;;;;;19.50;90.60;;;;;;4289004;33;43019;-80
2021/07/12 00:07:28;;;;;;;;;;;19.50;90.60;;;;;;4288524;33;42963;-80
2021/07/12 00:09:55;;;;;;;;;;;19.50;90.60;;;;;;4288782;33;44268;-81
2021/07/12 00:12:22;;;;;;;;;;;19.50;90.60;;;;;;4288661;33;43256;-81
2021/07/12 00:14:52;;;;;;;;;;;19.50;90.60;;;;;;4301559;33;43448;-81
2021/07/12 00:17:19;;;;;;;;;;;19.40;90.60;;;;;;4301368;33;44245;-80
2021/07/12 00:19:47;;;;;;;;;;;19.40;90.60;;;;;;4312514;33;43868;-80
2021/07/12 00:22:14;;;;;;;;;;;19.50;90.60;;;;;;4289023;33;44188;-80
2021/07/12 00:24:41;;;;;;;;;;;19.50;90.60;;;;;;4288688;33;43482;-81
2021/07/12 00:27:08;;;;;;;;;;;19.40;90.60;;;;;;4288174;33;45281;-81
2021/07/12 00:29:35;;;;;;;;;;;19.40;90.60;;;;;;4288709;33;43775;-81
2021/07/12 00:32:03;;;;;;;;;;;19.40;90.60;;;;;;4312651;33;44211;-81
2021/07/12 00:34:30;;;;;;;;;;;19.40;90.60;;;;;;4288389;33;44361;-81
2021/07/12 00:36:57;;;;;;;;;;;19.40;90.60;;;;;;4288431;33;44609;-80
2021/07/12 00:39:24;;;;;;;;;;;19.40;90.60;;;;;;4312106;33;43827;-80
2021/07/12 00:41:52;;;;;;;;;;;19.30;90.60;;;;;;4288395;33;44247;-81
2021/07/12 00:44:19;;;;;;;;;;;19.30;90.60;;;;;;4301651;33;43405;-80
2021/07/12 00:46:46;;;;;;;;;;;19.30;90.60;;;;;;4301502;33;43593;-81
2021/07/12 00:49:16;;;;;;;;;;;19.30;90.60;;;;;;4288236;33;42776;-81
2021/07/12 00:51:43;;;;;;;;;;;19.30;90.60;;;;;;4312408;33;43914;-81
2021/07/12 00:54:10;;;;;;;;;;;19.30;90.60;;;;;;4301330;33;43027;-81
2021/07/12 00:56:37;;;;;;;;;;;19.30;90.60;;;;;;4301041;33;44613;-82
2021/07/12 00:59:04;;;;;;;;;;;19.30;90.60;;;;;;4301324;33;42246;-82
2021/07/12 01:01:32;;;;;;;;;;;19.30;90.60;;;;;;4287792;33;44477;-81
2021/07/12 01:03:59;;;;;;;;;;;19.30;90.60;;;;;;4312393;33;44547;-81
2021/07/12 01:06:26;;;;;;;;;;;19.30;90.70;;;;;;4288163;33;42438;-81
2021/07/12 01:08:53;;;;;;;;;;;19.30;90.70;;;;;;4312168;33;44704;-81
2021/07/12 01:11:39;;;;;;;;;;;19.30;90.70;;;;;;4301059;33;44062;-81
2021/07/12 01:14:12;;;;;;;;;;;19.30;90.70;;;;;;4311949;33;44148;-81
2021/07/12 01:16:58;;;;;;;;;;;19.30;90.70;;;;;;4312399;33;44030;-81
2021/07/12 01:19:25;;;;;;;;;;;19.30;90.70;;;;;;4312124;33;43418;-82
2021/07/12 01:22:11;;;;;;;;;;;19.20;90.70;;;;;;4301440;33;44126;-81
2021/07/12 01:25:00;;;;;;;;;;;19.20;90.70;;;;;;4312386;33;44509;-82
2021/07/12 01:27:36;;;;;;;;;;;19.20;90.70;;;;;;4312258;33;43505;-81
2021/07/12 01:30:12;;;;;;;;;;;19.20;90.70;;;;;;4311726;33;44306;-81
2021/07/12 01:33:05;;;;;;;;;;;19.20;90.80;;;;;;4301184;33;44582;-81
2021/07/12 01:35:40;;;;;;;;;;;19.20;90.70;;;;;;4284463;33;45830;-81
2021/07/12 01:38:16;;;;;;;;;;;19.20;90.70;;;;;;4288331;33;45127;-81
2021/07/12 01:41:06;;;;;;;;;;;19.20;90.80;;;;;;4312078;33;46198;-81
2021/07/12 01:43:33;;;;;;;;;;;19.20;90.70;;;;;;4301326;33;45919;-80
2021/07/12 01:46:09;;;;;;;;;;;19.20;90.70;;;;;;4312721;33;20037;-81
2021/07/12 01:48:55;;;;;;;;;;;19.20;90.70;;;;;;4288063;33;45246;-81
2021/07/12 01:51:27;;;;;;;;;;;19.20;90.70;;;;;;4311667;33;44030;-82
2021/07/12 01:54:04;;;;;;;;;;;19.10;90.70;;;;;;4300798;33;43187;-82
2021/07/12 01:56:31;;;;;;;;;;;19.20;90.70;;;;;;4300786;33;42416;-81
2021/07/12 01:59:04;;;;;;;;;;;19.10;90.70;;;;;;4312055;33;43233;-81
2021/07/12 02:01:33;;;;;;;;;;;19.20;90.70;;;;;;4311522;33;43301;-81
2021/07/12 02:04:01;;;;;;;;;;;19.10;90.60;;;;;;4311829;33;44987;-81
2021/07/12 02:06:29;;;;;;;;;;;19.10;90.60;;;;;;4287632;33;44130;-81
2021/07/12 02:08:56;;;;;;;;;;;19.10;90.70;;;;;;4288073;33;43946;-81
2021/07/12 02:11:24;;;;;;;;;;;19.10;90.70;;;;;;4300604;33;45364;-81
2021/07/12 02:13:52;;;;;;;;;;;19.10;90.70;;;;;;4301083;33;44019;-81
2021/07/12 02:16:21;;;;;;;;;;;19.10;90.70;;;;;;4288600;33;20105;-82
2021/07/12 02:18:49;;;;;;;;;;;19.10;90.70;;;;;;4311518;33;42473;-81
2021/07/12 02:21:17;;;;;;;;;;;19.10;90.70;;;;;;4301864;33;44619;-81
2021/07/12 02:23:45;;;;;;;;;;;19.10;90.70;;;;;;4314524;33;43314;-81
2021/07/12 02:26:14;;;;;;;;;;;19.10;90.70;;;;;;4303456;33;43977;-81
2021/07/12 02:28:47;;;;;;;;;;;19.10;90.70;;;;;;4314237;33;44626;-81
2021/07/12 02:31:15;;;;;;;;;;;19.10;90.60;;;;;;4314284;33;44039;-81
2021/07/12 02:33:42;;;;;;;;;;;19.00;90.60;;;;;;4302885;33;44138;-80
2021/07/12 02:36:10;;;;;;;;;;;19.00;90.60;;;;;;4303242;33;44231;-81
2021/07/12 02:38:39;;;;;;;;;;;19.00;90.60;;;;;;4314561;33;43586;-81
2021/07/12 02:41:06;;;;;;;;;;;19.00;90.60;;;;;;4290198;33;44180;-82
2021/07/12 02:43:35;;;;;;;;;;;19.00;90.60;;;;;;4314247;33;42539;-81
2021/07/12 02:46:04;;;;;;;;;;;19.00;90.60;;;;;;4289717;33;44770;-81
2021/07/12 02:48:31;;;;;;;;;;;19.00;90.60;;;;;;4303719;33;20045;-81
2021/07/12 02:51:02;;;;;;;;;;;19.00;90.60;;;;;;4302909;33;43514;-81
2021/07/12 02:53:31;;;;;;;;;;;19.00;90.60;;;;;;4290015;33;43256;-81
2021/07/12 02:55:58;;;;;;;;;;;19.00;90.60;;;;;;4302539;33;44274;-81
2021/07/12 02:58:26;;;;;;;;;;;19.00;90.60;;;;;;4289952;33;44023;-81
2021/07/12 03:00:53;;;;;;;;;;;19.00;90.60;;;;;;4289879;33;43738;-81
2021/07/12 03:03:20;;;;;;;;;;;19.00;90.60;;;;;;4289564;33;44547;-82
2021/07/12 03:05:50;;;;;;;;;;;19.00;90.60;;;;;;4303114;33;43507;-82
2021/07/12 03:08:22;;;;;;;;;;;18.90;90.60;;;;;;4289767;33;43449;-81
2021/07/12 03:10:51;;;;;;;;;;;18.90;90.60;;;;;;4313888;33;43846;-82
2021/07/12 03:13:20;;;;;;;;;;;18.90;90.60;;;;;;4289841;33;43478;-81
2021/07/12 03:15:50;;;;;;;;;;;18.90;90.60;;;;;;4302673;33;43824;-81
2021/07/12 03:18:22;;;;;;;;;;;18.90;90.60;;;;;;4289813;33;43316;-81
2021/07/12 03:20:54;;;;;;;;;;;18.90;90.60;;;;;;4313593;33;44247;-81
2021/07/12 03:23:21;;;;;;;;;;;18.90;90.60;;;;;;4302569;33;45387;-82
2021/07/12 03:25:53;;;;;;;;;;;18.90;90.60;;;;;;4289123;33;44027;-81
2021/07/12 03:28:21;;;;;;;;;;;18.90;90.60;;;;;;4313386;33;43139;-82
2021/07/12 03:30:48;;;;;;;;;;;18.90;90.60;;;;;;4289318;33;43913;-81
2021/07/12 03:33:17;;;;;;;;;;;18.90;90.60;;;;;;4302087;33;43090;-81
2021/07/12 03:35:49;;;;;;;;;;;18.90;90.60;;;;;;4312984;33;43824;-81
2021/07/12 03:38:17;;;;;;;;;;;18.90;90.50;;;;;;4301879;33;45312;-81
2021/07/12 03:40:44;;;;;;;;;;;18.90;90.50;;;;;;4289468;33;43507;-81
2021/07/12 03:43:15;;;;;;;;;;;18.90;90.50;;;;;;4302062;33;43326;-81
2021/07/12 03:45:43;;;;;;;;;;;18.80;90.50;;;;;;4289441;33;43468;-81
2021/07/12 03:48:10;;;;;;;;;;;18.80;90.50;;;;;;4302120;33;43709;-81
2021/07/12 03:50:38;;;;;;;;;;;18.80;90.50;;;;;;4312670;33;44510;-82
2021/07/12 03:53:05;;;;;;;;;;;18.80;90.50;;;;;;4301541;33;43233;-82
2021/07/12 03:55:32;;;;;;;;;;;18.80;90.50;;;;;;4312691;33;43032;-81
2021/07/12 03:58:00;;;;;;;;;;;18.80;90.50;;;;;;4288818;33;43076;-81
2021/07/12 04:00:29;;;;;;;;;;;18.80;90.40;;;;;;4313063;33;43207;-81
2021/07/12 04:02:56;;;;;;;;;;;18.80;90.40;;;;;;4288605;33;43878;-81
2021/07/12 04:05:24;;;;;;;;;;;18.80;90.50;;;;;;4313002;33;43409;-82
2021/07/12 04:07:55;;;;;;;;;;;18.70;90.50;;;;;;4288682;33;42300;-82
2021/07/12 04:10:22;;;;;;;;;;;18.70;90.40;;;;;;4301972;33;44348;-81
2021/07/12 04:12:49;;;;;;;;;;;18.70;90.40;;;;;;4288581;33;43403;-82
2021/07/12 04:15:17;;;;;;;;;;;18.70;90.40;;;;;;4301472;33;45611;-82
2021/07/12 04:17:47;;;;;;;;;;;18.70;90.50;;;;;;4312950;33;42782;-82
2021/07/12 04:20:15;;;;;;;;;;;18.70;90.50;;;;;;4289657;33;19999;-81
2021/07/12 04:22:43;;;;;;;;;;;18.70;90.50;;;;;;4312403;33;44010;-81
2021/07/12 04:25:11;;;;;;;;;;;18.70;90.50;;;;;;4289030;33;43839;-81
2021/07/12 04:27:38;;;;;;;;;;;18.70;90.50;;;;;;4288537;33;45556;-82
2021/07/12 04:30:06;;;;;;;;;;;18.70;90.50;;;;;;4288299;33;42716;-81
2021/07/12 04:32:33;;;;;;;;;;;18.70;90.50;;;;;;4301674;33;44312;-82
2021/07/12 04:35:00;;;;;;;;;;;18.70;90.50;;;;;;4301725;33;43819;-82
2021/07/12 04:37:28;;;;;;;;;;;18.70;90.50;;;;;;4288343;33;45130;-82
2021/07/12 04:39:55;;;;;;;;;;;18.70;90.50;;;;;;4312561;33;42948;-83
2021/07/12 04:42:25;;;;;;;;;;;18.70;90.50;;;;;;4288775;33;42969;-81
2021/07/12 04:44:52;;;;;;;;;;;18.70;90.50;;;;;;4288145;33;43479;-83
2021/07/12 04:47:19;;;;;;;;;;;18.60;90.50;;;;;;4312095;33;43415;-82
2021/07/12 04:49:47;;;;;;;;;;;18.60;90.50;;;;;;4288545;33;45029;-82
2021/07/12 04:52:14;;;;;;;;;;;18.60;90.50;;;;;;4312238;33;42469;-82
2021/07/12 04:54:42;;;;;;;;;;;18.60;90.60;;;;;;4311958;33;43545;-82
2021/07/12 04:57:09;;;;;;;;;;;18.60;90.60;;;;;;4301433;33;42393;-81
2021/07/12 04:59:40;;;;;;;;;;;18.60;90.60;;;;;;4312415;33;43857;-82
2021/07/12 05:02:07;;;;;;;;;;;18.60;90.60;;;;;;4288292;33;45691;-82
2021/07/12 05:04:36;;;;;;;;;;;18.60;90.60;;;;;;4301114;33;43027;-81
2021/07/12 05:07:03;;;;;;;;;;;18.60;90.60;;;;;;4301374;33;45828;-81
2021/07/12 05:09:31;;;;;;;;;;;18.60;90.60;;;;;;4300881;33;43785;-81
2021/07/12 05:11:58;;;;;;;;;;;18.60;90.60;;;;;;4301327;33;42976;-81
2021/07/12 05:14:28;;;;;;;;;;;18.60;90.70;;;;;;4288268;33;45324;-81
2021/07/12 05:16:55;;;;;;;;;;;18.60;90.70;;;;;;4300896;33;45491;-81
2021/07/12 05:19:22;;;;;;;;;;;18.60;90.70;;;;;;4311911;33;45168;-81
2021/07/12 05:21:49;;;;;;;;;;;18.60;90.70;;;;;;4288252;33;44780;-82
2021/07/12 05:24:17;;;;;;;;;;;18.60;90.70;;;;;;4311923;33;43047;-81
2021/07/12 05:26:46;;;;;;;;;;;18.60;90.70;;;;;;4312274;33;42633;-82
2021/07/12 05:29:14;;;;;;;;;;;18.60;90.70;;;;;;4287937;33;42960;-81
2021/07/12 05:31:44;;;;;;;;;;;18.60;90.80;;;;;;4300826;33;43954;-81
2021/07/12 05:34:11;;;;;;;;;;;18.60;90.80;;;;;;4301274;33;45193;-81
2021/07/12 05:36:38;;;;;;;;;;;18.60;90.80;;;;;;4311675;33;44582;-81
2021/07/12 05:39:06;;;;;;;;;;;18.60;90.80;;;;;;4287918;33;43559;-81
2021/07/12 05:41:34;;;;;;;;;;;18.60;90.80;;;;;;4287756;33;43494;-81
2021/07/12 05:44:01;;;;;;;;;;;18.50;90.70;;;;;;4312479;33;43917;-81
2021/07/12 05:46:28;;;;;;;;;;;18.50;90.80;;;;;;4300680;33;43803;-81
2021/07/12 05:48:56;;;;;;;;;;;18.50;90.80;;;;;;4300622;33;43939;-82
2021/07/12 05:51:23;;;;;;;;;;;18.50;90.80;;;;;;4300708;33;45069;-82
2021/07/12 05:53:51;;;;;;;;;;;18.50;90.80;;;;;;4288186;33;43213;-82
2021/07/12 05:56:18;;;;;;;;;;;18.60;90.90;;;;;;4313081;33;43553;-81
2021/07/12 05:58:45;;;;;;;;;;;18.50;90.90;;;;;;4290650;33;44157;-81
2021/07/12 06:01:12;;;;;;;;;;;18.60;90.90;;;;;;4314370;33;42917;-81
2021/07/12 06:03:39;;;;;;;;;;;18.50;90.90;;;;;;4314622;33;42797;-81
2021/07/12 06:06:06;;;;;;;;;;;18.60;90.90;;;;;;4314793;33;43327;-81
2021/07/12 06:08:33;;;;;;;;;;;18.50;91.00;;;;;;4314511;33;42767;-81
2021/07/12 06:11:00;;;;;;;;;;;18.60;91.00;;;;;;4314257;33;42666;-81
2021/07/12 06:13:28;;;;;;;;;;;18.50;91.00;;;;;;4314311;33;44143;-82
2021/07/12 06:15:55;;;;;;;;;;;18.60;91.10;;;;;;4303482;33;46067;-81
2021/07/12 06:18:22;;;;;;;;;;;18.60;91.10;;;;;;4314135;33;43859;-80
2021/07/12 06:20:50;;;;;;;;;;;18.60;91.10;;;;;;4314385;33;43807;-81
2021/07/12 06:23:17;;;;;;;;;;;18.60;91.10;;;;;;4303038;33;42657;-81
2021/07/12 06:25:44;;;;;;;;;;;18.60;91.20;;;;;;4314034;33;43431;-81
2021/07/12 06:28:11;;;;;;;;;;;18.60;91.10;;;;;;4290698;33;43527;-81
2021/07/12 06:30:38;;;;;;;;;;;18.60;91.20;;;;;;4313873;33;44326;-81
2021/07/12 06:33:05;;;;;;;;;;;18.60;91.20;;;;;;4290042;33;44300;-81
2021/07/12 06:35:33;;;;;;;;;;;18.60;91.20;;;;;;4314189;33;43295;-80
2021/07/12 06:38:01;;;;;;;;;;;18.60;91.20;;;;;;4303385;33;44218;-82
2021/07/12 06:40:28;;;;;;;;;;;18.60;91.20;;;;;;4303091;33;43253;-82
2021/07/12 06:42:55;;;;;;;;;;;18.60;91.20;;;;;;4303272;33;43347;-81
2021/07/12 06:45:22;;;;;;;;;;;18.60;91.20;;;;;;4303319;33;43871;-82
2021/07/12 06:47:49;;;;;;;;;;;18.60;91.20;;;;;;4314083;33;43255;-81
2021/07/12 06:50:17;;;;;;;;;;;18.70;91.20;;;;;;4289567;33;43846;-83
2021/07/12 06:52:44;;;;;;;;;;;18.70;91.30;;;;;;4302634;33;43238;-82
2021/07/12 06:55:11;;;;;;;;;;;18.60;91.20;;;;;;4313967;33;45224;-82
2021/07/12 06:57:41;;;;;;;;;;;18.70;91.30;;;;;;4313494;33;44824;-83
2021/07/12 07:00:08;;;;;;;;;;;18.70;91.30;;;;;;4289814;33;44959;-83
2021/07/12 07:02:35;;;;;;;;;;;18.70;91.30;;;;;;4302847;33;43486;-82
2021/07/12 07:05:03;;;;;;;;;;;18.70;91.20;;;;;;4289486;33;43120;-83
2021/07/12 07:07:30;;;;;;;;;;;18.70;91.30;;;;;;4313555;33;45110;-83
2021/07/12 07:09:58;;;;;;;;;;;18.70;91.60;;;;;;4289287;33;44184;-82
2021/07/12 07:12:25;;;;;;;;;;;18.70;91.20;;;;;;4289396;33;42347;-81
2021/07/12 07:14:52;;;;;;;;;;;18.80;91.20;;;;;;4313693;33;43402;-82
2021/07/12 07:17:20;;;;;;;;;;;18.80;91.20;;;;;;4302723;33;45031;-82
2021/07/12 07:19:47;;;;;;;;;;;18.80;91.20;;;;;;4313614;33;43556;-80
2021/07/12 07:22:14;;;;;;;;;;;18.80;91.20;;;;;;4289567;33;43966;-81
2021/07/12 07:24:42;;;;;;;;;;;18.80;91.20;;;;;;4313149;33;44078;-81
2021/07/12 07:27:12;;;;;;;;;;;18.80;91.20;;;;;;4302472;33;43273;-80
2021/07/12 07:29:39;;;;;;;;;;;18.80;91.20;;;;;;4302328;33;45804;-79
2021/07/12 07:32:07;;;;;;;;;;;18.80;91.20;;;;;;4301035;33;42783;-80
2021/07/12 07:34:42;;;;;;;;;;;18.90;91.20;;;;;;4313028;33;43785;-80
2021/07/12 07:37:09;;;;;;;;;;;18.90;91.20;;;;;;4289212;33;44091;-79
2021/07/12 07:39:36;;;;;;;;;;;18.90;91.20;;;;;;4302476;33;43664;-80
2021/07/12 07:42:20;;;;;;;;;;;18.90;91.20;;;;;;4291190;33;42828;-79
2021/07/12 07:44:47;;;;;;;;;;;18.90;91.20;;;;;;4289416;33;43850;-80
2021/07/12 07:47:15;;;;;;;;;;;18.90;91.20;;;;;;4289362;33;44373;-80
2021/07/12 07:49:42;;;;;;;;;;;18.90;91.10;;;;;;4301699;33;45701;-78
2021/07/12 07:52:10;;;;;;;;;;;18.90;91.10;;;;;;4312874;33;43494;-79
2021/07/12 07:54:37;;;;;;;;;;;18.90;91.10;;;;;;4302275;33;44257;-79
2021/07/12 07:57:04;;;;;;;;;;;18.90;91.10;;;;;;4302181;33;42457;-79
2021/07/12 07:59:31;;;;;;;;;;;19.00;91.20;;;;;;4301680;33;44098;-81
2021/07/12 08:01:59;;;;;;;;;;;19.00;91.10;;;;;;4301580;33;43767;-79
2021/07/12 08:04:46;;;;;;;;;;;19.00;91.10;;;;;;4302118;33;45915;-78
2021/07/12 08:07:13;;;;;;;;;;;19.00;91.10;;;;;;4289105;33;44812;-79
2021/07/12 08:09:40;;;;;;;;;;;19.00;91.10;;;;;;4312948;33;44167;-80
2021/07/12 08:12:10;;;;;;;;;;;19.00;91.10;;;;;;4302003;33;43938;-79
2021/07/12 08:14:37;;;;;;;;;;;19.00;91.10;;;;;;4313178;33;43240;-78
2021/07/12 08:17:04;;;;;;;;;;;19.10;91.10;;;;;;4302027;33;45181;-79
2021/07/12 08:19:31;;;;;;;;;;;19.10;91.10;;;;;;4288379;33;43170;-79
2021/07/12 08:22:05;;;;;;;;;;;19.10;91.10;;;;;;4301986;33;44951;-80
2021/07/12 08:24:32;;;;;;;;;;;19.10;91.10;;;;;;4301874;33;44035;-79
2021/07/12 08:27:01;;;;;;;;;;;19.10;91.10;;;;;;4312883;33;43985;-78
2021/07/12 08:29:29;;;;;;;;;;;19.10;91.10;;;;;;4301313;33;43453;-77
2021/07/12 08:31:56;;;;;;;;;;;19.10;91.10;;;;;;4301646;33;43771;-77
2021/07/12 08:34:23;;;;;;;;;;;19.10;91.10;;;;;;4312747;33;44408;-78
2021/07/12 08:36:50;;;;;;;;;;;19.10;91.10;;;;;;4288751;33;43121;-77
2021/07/12 08:39:18;;;;;;;;;;;19.10;91.10;;;;;;4301153;33;44161;-78
2021/07/12 08:41:46;;;;;;;;;;;19.20;91.10;;;;;;4301719;33;45007;-78
2021/07/12 08:44:27;;;;;;;;;;;19.20;91.10;;;;;;4311344;33;44592;-78
2021/07/12 08:46:54;;;;;;;;;;;19.20;91.10;;;;;;4288220;33;44906;-79
2021/07/12 08:49:21;;;;;;;;;;;19.20;91.10;;;;;;4312562;33;43451;-78
2021/07/12 08:51:49;;;;;;;;;;;19.20;91.10;;;;;;4302403;33;20061;-77
2021/07/12 08:54:17;;;;;;;;;;;19.20;91.10;;;;;;4301240;33;42987;-81
2021/07/12 08:56:44;;;;;;;;;;;19.20;91.10;;;;;;4288540;33;43691;-81
2021/07/12 08:59:30;;;;;;;;;;;19.30;91.20;;;;;;4288510;33;46026;-81
2021/07/12 09:02:08;;;;;;;;;;;19.20;91.10;;;;;;4311661;33;44257;-80
2021/07/12 09:04:37;;;;;;;;;;;19.20;91.10;;;;;;4311980;33;44287;-78
2021/07/12 09:07:07;;;;;;;;;;;19.20;91.10;;;;;;4311922;33;43796;-79
2021/07/12 09:09:35;;;;;;;;;;;19.30;91.20;;;;;;4288542;33;42866;-79
2021/07/12 09:12:10;;;;;;;;;;;19.30;91.20;;;;;;4311994;33;42324;-79
2021/07/12 09:14:39;;;;;;;;;;;19.30;91.20;;;;;;4301459;33;44622;-78
2021/07/12 09:17:08;;;;;;;;;;;19.30;91.20;;;;;;4312012;33;44198;-79
2021/07/12 09:19:36;;;;;;;;;;;19.30;91.20;;;;;;4288043;33;45520;-78
2021/07/12 09:22:03;;;;;;;;;;;19.30;91.20;;;;;;4312972;33;19994;-79
2021/07/12 09:24:45;;;;;;;;;;;19.30;91.20;;;;;;4312209;33;43333;-79
2021/07/12 09:27:14;;;;;;;;;;;19.30;91.20;;;;;;4288378;33;43200;-78
2021/07/12 09:29:45;;;;;;;;;;;19.30;91.20;;;;;;4312538;33;43486;-79
2021/07/12 09:32:13;;;;;;;;;;;19.30;91.20;;;;;;4303811;33;43013;-79
2021/07/12 09:34:41;;;;;;;;;;;19.40;91.20;;;;;;4290828;33;44590;-79
2021/07/12 09:37:11;;;;;;;;;;;19.30;91.20;;;;;;4303924;33;43874;-79
2021/07/12 09:39:39;;;;;;;;;;;19.40;91.30;;;;;;4303551;33;43899;-80
2021/07/12 09:42:09;;;;;;;;;;;19.40;91.30;;;;;;4290751;33;43935;-78
2021/07/12 09:44:59;;;;;;;;;;;19.40;91.30;;;;;;4303819;33;44136;-78
2021/07/12 09:47:27;;;;;;;;;;;19.40;91.30;;;;;;4287351;33;42875;-78
2021/07/12 09:50:02;;;;;;;;;;;19.40;91.30;;;;;;4314764;33;43492;-78
2021/07/12 09:52:37;;;;;;;;;;;19.40;91.30;;;;;;4315611;33;20073;-79
2021/07/12 09:55:04;;;;;;;;;;;19.50;91.30;;;;;;4314703;33;44041;-79
2021/07/12 09:57:33;;;;;;;;;;;19.50;91.30;;;;;;4290951;33;45282;-79
2021/07/12 10:00:07;;;;;;;;;;;19.50;91.30;;;;;;4290946;33;43539;-78
2021/07/12 10:02:35;;;;;;;;;;;19.50;91.30;;;;;;4290382;33;45786;-78
2021/07/12 10:05:07;;;;;;;;;;;19.50;91.30;;;;;;4303368;33;44723;-79
2021/07/12 10:07:34;;;;;;;;;;;19.50;91.30;;;;;;4290744;33;44137;-80
2021/07/12 10:10:04;;;;;;;;;;;19.50;91.30;;;;;;4303704;33;44745;-79
2021/07/12 10:12:31;;;;;;;;;;;19.60;91.30;;;;;;4290673;33;45454;-78
2021/07/12 10:14:58;;;;;;;;;;;19.60;91.30;;;;;;4303695;33;43190;-80
2021/07/12 10:17:25;;;;;;;;;;;19.60;91.30;;;;;;4303583;33;44190;-77
2021/07/12 10:19:55;;;;;;;;;;;19.70;91.30;;;;;;4303382;33;44190;-77
2021/07/12 10:22:24;;;;;;;;;;;19.70;91.30;;;;;;4303828;33;43194;-78
2021/07/12 10:24:51;;;;;;;;;;;19.70;91.30;;;;;;4290330;33;44167;-79
2021/07/12 10:27:25;;;;;;;;;;;19.70;91.30;;;;;;4290351;33;42725;-79
2021/07/12 10:29:57;;;;;;;;;;;19.70;91.30;;;;;;4303280;33;43773;-80
2021/07/12 10:32:26;;;;;;;;;;;19.80;91.30;;;;;;4303210;33;43409;-80
2021/07/12 10:34:54;;;;;;;;;;;19.80;91.30;;;;;;4313846;33;44665;-79
2021/07/12 10:37:23;;;;;;;;;;;19.80;91.30;;;;;;4290346;33;43459;-79
2021/07/12 10:39:56;;;;;;;;;;;19.80;91.30;;;;;;4314240;33;44207;-79
2021/07/12 10:42:42;;;;;;;;;;;19.80;91.30;;;;;;4302509;33;42874;-80
2021/07/12 10:45:09;;;;;;;;;;;19.80;91.30;;;;;;4302888;33;42919;-79
2021/07/12 10:47:41;;;;;;;;;;;19.80;91.30;;;;;;4313779;33;44312;-79
2021/07/12 10:50:27;;;;;;;;;;;19.80;91.30;;;;;;4303130;33;43359;-79
2021/07/12 10:52:57;;;;;;;;;;;19.90;91.30;;;;;;4303133;33;43548;-80
2021/07/12 10:55:29;;;;;;;;;;;19.80;91.30;;;;;;4289913;33;43872;-79
2021/07/12 10:58:15;;;;;;;;;;;19.90;91.30;;;;;;4313749;33;44195;-79
2021/07/12 11:00:42;;;;;;;;;;;19.90;91.30;;;;;;4303142;33;44271;-79
2021/07/12 11:03:31;;;;;;;;;;;19.90;91.30;;;;;;4313453;33;44212;-79
2021/07/12 11:05:58;;;;;;;;;;;19.90;91.20;;;;;;4313483;33;43963;-79
2021/07/12 11:08:43;;;;;;;;;;;19.90;91.20;;;;;;4313932;33;45542;-79
2021/07/12 11:11:11;;;;;;;;;;;19.90;91.20;;;;;;4302936;33;46023;-79
2021/07/12 11:13:57;;;;;;;;;;;19.90;91.20;;;;;;4313887;33;44181;-79
2021/07/12 11:16:30;;;;;;;;;;;20.00;91.30;;;;;;4302651;33;42396;-80
2021/07/12 11:18:59;;;;;;;;;;;20.00;91.30;;;;;;4314032;33;44220;-79
2021/07/12 11:21:30;;;;;;;;;;;20.00;91.30;;;;;;4302894;33;43481;-80
2021/07/12 11:24:12;;;;;;;;;;;20.00;91.30;;;;;;4302903;33;43947;-82
2021/07/12 11:26:42;;;;;;;;;;;20.00;91.30;;;;;;4302875;33;44065;-80
2021/07/12 11:29:09;;;;;;;;;;;20.00;91.30;;;;;;4289719;33;44711;-78
2021/07/12 11:31:46;;;;;;;;;;;20.10;91.30;;;;;;4313618;33;44036;-79
2021/07/12 11:34:14;;;;;;;;;;;20.10;91.30;;;;;;4313650;33;44274;-81
2021/07/12 11:36:51;;;;;;;;;;;20.10;91.20;;;;;;4302482;33;45802;-79
2021/07/12 11:39:46;;;;;;;;;;;20.10;91.20;;;;;;4291008;33;43807;-78
2021/07/12 11:42:18;;;;;;;;;;;20.10;91.20;;;;;;4289706;33;43966;-78
2021/07/12 11:44:49;;;;;;;;;;;20.10;91.20;;;;;;4301983;33;43210;-82
2021/07/12 11:47:23;;;;;;;;;;;20.20;91.20;;;;;;4302421;33;44018;-82
2021/07/12 11:49:52;;;;;;;;;;;20.20;91.10;;;;;;4289103;33;43446;-81
2021/07/12 11:52:19;;;;;;;;;;;20.20;91.10;;;;;;4313199;33;44216;-80
2021/07/12 11:54:46;;;;;;;;;;;20.20;91.00;;;;;;4289175;33;43930;-81
2021/07/12 11:57:15;;;;;;;;;;;20.20;91.00;;;;;;4312871;33;42833;-79
2021/07/12 11:59:43;;;;;;;;;;;20.20;91.00;;;;;;4289301;33;42871;-82
2021/07/12 12:02:11;;;;;;;;;;;20.20;91.30;;;;;;4301853;33;43890;-80
2021/07/12 12:04:51;;;;;;;;;;;20.20;91.10;;;;;;4312668;33;42438;-80
2021/07/12 12:07:28;;;;;;;;;;;20.30;91.20;;;;;;4302155;33;45264;-82
2021/07/12 12:09:56;;;;;;;;;;;20.30;91.10;;;;;;4312645;33;44065;-79
2021/07/12 12:12:25;;;;;;;;;;;20.30;91.10;;;;;;4312566;33;44373;-81
2021/07/12 12:14:56;;;;;;;;;;;20.30;91.00;;;;;;4312531;33;43841;-81
2021/07/12 12:17:24;;;;;;;;;;;20.30;91.10;;;;;;4312468;33;43583;-80
2021/07/12 12:20:01;;;;;;;;;;;20.30;91.50;;;;;;4312518;33;43868;-81
2021/07/12 12:22:29;;;;;;;;;;;20.30;91.10;;;;;;4301536;33;42709;-80
2021/07/12 12:24:57;;;;;;;;;;;20.30;91.20;;;;;;4312397;33;42955;-79
2021/07/12 12:27:24;;;;;;;;;;;20.30;91.20;;;;;;4301619;33;44295;-81
2021/07/12 12:29:51;;;;;;;;;;;20.30;91.20;;;;;;4312380;33;43801;-81
2021/07/12 12:32:28;;;;;;;;;;;20.30;91.30;;;;;;4312330;33;44491;-80
2021/07/12 12:35:01;;;;;;;;;;;20.30;91.40;;;;;;4288819;33;43639;-81
2021/07/12 12:37:38;;;;;;;;;;;20.30;91.40;;;;;;4301600;33;44132;-82
2021/07/12 12:40:06;;;;;;;;;;;20.30;91.40;;;;;;4288675;33;44340;-82
2021/07/12 12:42:34;;;;;;;;;;;20.30;91.50;;;;;;4301664;33;43368;-81
2021/07/12 12:45:01;;;;;;;;;;;20.30;91.50;;;;;;4301572;33;42556;-82
2021/07/12 12:47:28;;;;;;;;;;;20.40;91.60;;;;;;4312124;33;44872;-81
2021/07/12 12:49:55;;;;;;;;;;;20.40;91.60;;;;;;4312316;33;42643;-82
2021/07/12 12:52:30;;;;;;;;;;;20.40;91.70;;;;;;4301777;33;44742;-82
2021/07/12 12:55:08;;;;;;;;;;;20.30;91.60;;;;;;4288747;33;43480;-82
2021/07/12 12:57:36;;;;;;;;;;;20.40;91.60;;;;;;4312538;33;44705;-81
2021/07/12 13:00:07;;;;;;;;;;;20.40;91.50;;;;;;4301440;33;44205;-82
2021/07/12 13:02:41;;;;;;;;;;;20.40;91.50;;;;;;4288317;33;45811;-83
2021/07/12 13:05:14;;;;;;;;;;;20.40;91.50;;;;;;4311880;33;43254;-81
2021/07/12 13:07:49;;;;;;;;;;;20.40;91.50;;;;;;4301548;33;44068;-81
2021/07/12 13:10:25;;;;;;;;;;;20.40;91.60;;;;;;4300921;33;45142;-80
2021/07/12 13:12:54;;;;;;;;;;;20.40;91.50;;;;;;4312255;33;44340;-83
2021/07/12 13:15:24;;;;;;;;;;;20.50;91.50;;;;;;4288192;33;43854;-82
2021/07/12 13:17:53;;;;;;;;;;;20.50;91.50;;;;;;4288500;33;45106;-80
2021/07/12 13:20:24;;;;;;;;;;;20.50;91.60;;;;;;4300936;33;44094;-81
2021/07/12 13:22:56;;;;;;;;;;;20.50;91.60;;;;;;4312572;33;42139;-82
2021/07/12 13:25:34;;;;;;;;;;;20.60;91.60;;;;;;4288427;33;42175;-80
2021/07/12 13:28:05;;;;;;;;;;;20.50;91.50;;;;;;4301950;33;20034;-83
2021/07/12 13:30:44;;;;;;;;;;;20.60;91.50;;;;;;4311738;33;43802;-81
2021/07/12 13:33:12;;;;;;;;;;;20.50;91.50;;;;;;4300917;33;43049;-79
2021/07/12 13:35:39;;;;;;;;;;;20.60;91.60;;;;;;4287818;33;43063;-81
2021/07/12 13:38:10;;;;;;;;;;;20.60;91.60;;;;;;4300725;33;43482;-82
2021/07/12 13:40:39;;;;;;;;;;;20.60;91.50;;;;;;4312278;33;43052;-79
2021/07/12 13:43:07;;;;;;;;;;;20.60;91.50;;;;;;4311769;33;42768;-80
2021/07/12 13:45:35;;;;;;;;;;;20.60;91.40;;;;;;4301190;33;44414;-83
2021/07/12 13:48:02;;;;;;;;;;;20.60;91.40;;;;;;4300714;33;43001;-81
2021/07/12 13:50:30;;;;;;;;;;;20.60;91.40;;;;;;4287994;33;44214;-84
2021/07/12 13:52:59;;;;;;;;;;;20.60;91.40;;;;;;4300834;33;43487;-82
2021/07/12 13:55:27;;;;;;;;;;;20.60;91.50;;;;;;4287842;33;42644;-80
2021/07/12 13:57:55;;;;;;;;;;;20.60;91.40;;;;;;4301089;33;43211;-82
2021/07/12 14:00:23;;;;;;;;;;;20.60;91.50;;;;;;4300719;33;43834;-82
2021/07/12 14:02:50;;;;;;;;;;;20.60;91.50;;;;;;4300492;33;43020;-81
2021/07/12 14:05:18;;;;;;;;;;;20.70;91.50;;;;;;4311995;33;44228;-81
2021/07/12 14:07:45;;;;;;;;;;;20.70;91.40;;;;;;4300731;33;42641;-82
2021/07/12 14:10:14;;;;;;;;;;;20.70;91.40;;;;;;4300596;33;43554;-82
2021/07/12 14:12:42;;;;;;;;;;;20.70;91.30;;;;;;4311408;33;44194;-82
2021/07/12 14:15:11;;;;;;;;;;;20.60;91.30;;;;;;4301155;33;43246;-82
2021/07/12 14:17:39;;;;;;;;;;;20.60;91.30;;;;;;4302819;33;45047;-82
2021/07/12 14:20:07;;;;;;;;;;;20.60;91.30;;;;;;4314458;33;44458;-82
2021/07/12 14:22:34;;;;;;;;;;;20.60;91.30;;;;;;4314009;33;43772;-81
2021/07/12 14:25:02;;;;;;;;;;;20.60;91.30;;;;;;4314484;33;43379;-81
2021/07/12 14:27:29;;;;;;;;;;;20.60;91.30;;;;;;4290068;33;43848;-82
2021/07/12 14:29:59;;;;;;;;;;;20.60;91.30;;;;;;4303309;33;43217;-82